Bloomfield, IN (47424)

9:29 AM EDT on April 25, 2015 (GMT -0400)
Antioch | | Change Station
CLOSE
Current Station
Personal Weather Station
Location: Bloomfield, IN
Elevation: 602 ft
Nearby Weather Stations
Active Advisory: Flood Warning

Elev 602 ft 38.98 °N, 86.91 °W | Updated 1 minute ago

Overcast
Overcast
51.7 °F
Feels Like 51.7 °F
N
0.0
Wind Variable Wind from East
Gusts 2.0 mph

Today
High -- | Low -- °F
--% Chance of Precip.
Yesterday
High -- | Low -- °F
Precip. -- in
6:57 AM 8:34 PM
Waxing Crescent, 46% visible
Pressure 29.69 in
Visibility 10.0 miles
Clouds Mostly Cloudy 2100 ft
Overcast 2700 ft
Dew Point 49 °F
Humidity 89%
Rainfall 0.02 in
Snow Depth Not available.
UV 1 out of 12
Pollen 10.40 out of 12
Air Quality Not available.
Flu Activity Local Activity
METAR KBMG 251253Z 11011KT 10SM -RA BKN021 OVC027 11/08 A2970 RMK AO2 RAB42 SLP054 P0000 T01060078

More Conditions Fewer Conditions

Pressure 29.69 in
Visibility 10.0 miles
Clouds Mostly Cloudy 2100 ft
Overcast 2700 ft
Dew Point 49 °F
Humidity 89%
Rainfall 0.02 in
Snow Depth Not available.
UV 1 out of 12
Pollen 10.40 out of 12
Air Quality Not available.
Flu Activity Local Activity
METAR KBMG 251253Z 11011KT 10SM -RA BKN021 OVC027 11/08 A2970 RMK AO2 RAB42 SLP054 P0000 T01060078

More Conditions Fewer Conditions

10-Day Weather Forecast

Almanac

Astronomy

Apr. 25, 2015 Rise Set
Actual Time
Civil Twilight
Nautical Twilight
Astronomical Twilight
Moon
Length of Visible Light
Length of Day
Tomorrow will be .
, % of the Moon is Illuminated

Today's Extremes

State Highs State Lows

Community

WunderPhotos

Upload Photos

1,816,663 photos uploaded!

WunderBlogs® & News

Nearby

Air Quality

  Air Quality AQ Index Pollutant
Not available.

Snow Depth

Station Depth Elevation

Earthquake Activity

City Distance Mag. Time & Date
Minimum magnitude displayed is 2.5.

Coastal Water Temperatures

Place Temperature

Stations

Nearby Weather Stations

Station Location Temp. Windchill Dew Point Humidity Wind Precip. Elev Updated Type
                   
Flood Warning
Statement as of 12:18 PM EDT on April 24, 2015

The Flood Warning continues for
the White River at Elliston.
* Until Thursday morning.
* At 8:00 am Friday the stage was 16.3 feet.
* Flood stage is 18.0 feet.
* Minor flooding is forecast.
* Forecast... the river has fallen below flood stage but is expected
to reach flood stage again Monday night.
* At 20.0 feet... River Road north of Greene CR 150 W is flooded. Low
agricultural fields flood.


Lat... Lon 3913 8696 3905 8699 3900 8697 3900 8693
      3908 8694 3912 8692